createdAt,value
2017-09-13T00:00:17.288Z,59.2
2017-09-13T00:01:17.304Z,59.01
2017-09-13T00:02:17.645Z,59.66
2017-09-13T00:03:17.667Z,59.66
2017-09-13T00:04:17.362Z,58.98
2017-09-13T00:05:17.813Z,59.47
2017-09-13T00:06:17.811Z,59.47
2017-09-13T00:07:17.417Z,58.89
2017-09-13T00:08:17.759Z,58.89
2017-09-13T00:09:17.778Z,59.01
2017-09-13T00:10:17.484Z,59.4
2017-09-13T00:11:17.497Z,59.3
2017-09-13T00:12:17.512Z,59.27
2017-09-13T00:13:17.858Z,59.08
2017-09-13T00:14:17.560Z,59.75
2017-09-13T00:15:17.898Z,59.66
2017-09-13T00:16:17.588Z,59.75
2017-09-13T00:17:17.934Z,59.66
2017-09-13T00:18:17.949Z,59.66
2017-09-13T00:19:17.978Z,59.56
2017-09-13T00:20:17.986Z,59.94
2017-09-13T00:21:18.018Z,59.66
2017-09-13T00:22:18.027Z,60.23
2017-09-13T00:23:18.254Z,60.52
2017-09-13T00:24:18.064Z,60.04
2017-09-13T00:25:18.256Z,60.13
2017-09-13T00:26:18.308Z,59.94
2017-09-13T00:27:18.301Z,60.13
2017-09-13T00:28:17.995Z,60.13
2017-09-13T00:29:18.312Z,60.52
2017-09-13T00:30:18.209Z,60.42
2017-09-13T00:31:17.966Z,60.33
2017-09-13T00:32:18.216Z,60.42
2017-09-13T00:33:17.967Z,60.23
2017-09-13T00:34:17.957Z,60.23
2017-09-13T00:35:18.272Z,60.33
2017-09-13T00:36:17.970Z,60.33
2017-09-13T00:37:18.074Z,60.42
2017-09-13T00:38:18.328Z,60.13
2017-09-13T00:39:18.024Z,59.94
2017-09-13T00:40:18.368Z,60.52
2017-09-13T00:41:18.066Z,60.13
2017-09-13T00:42:18.084Z,60.33
2017-09-13T00:43:18.418Z,60.13
2017-09-13T00:44:18.115Z,60.42
2017-09-13T00:45:18.140Z,60.52
2017-09-13T00:46:18.478Z,60.52
2017-09-13T00:47:18.170Z,60.61
2017-09-13T00:48:18.192Z,60.99
2017-09-13T00:49:18.543Z,60.99
2017-09-13T00:50:18.232Z,60.9
2017-09-13T00:51:18.252Z,60.9
2017-09-13T00:52:18.385Z,60.52
2017-09-13T00:53:18.287Z,60.42
2017-09-13T00:54:18.305Z,60.9
2017-09-13T00:55:18.774Z,60.9
2017-09-13T00:56:18.668Z,61.38
2017-09-13T00:57:18.684Z,61.47
2017-09-13T00:58:18.708Z,60.99
2017-09-13T00:59:18.850Z,61.19
2017-09-13T01:00:18.420Z,61.28
2017-09-13T01:01:18.441Z,61.28
2017-09-13T01:02:18.454Z,60.71
2017-09-13T01:03:18.522Z,61.38
2017-09-13T01:04:18.499Z,60.9
2017-09-13T01:05:18.923Z,60.9
2017-09-13T01:06:18.538Z,61.38
2017-09-13T01:07:18.550Z,60.99
2017-09-13T01:08:18.889Z,60.99
2017-09-13T01:09:18.906Z,61.09
2017-09-13T01:10:18.928Z,61.19
2017-09-13T01:11:19.245Z,61.19
2017-09-13T01:12:18.962Z,60.99
2017-09-13T01:13:18.986Z,61.09
2017-09-13T01:14:19.002Z,61.57
2017-09-13T01:15:18.702Z,61.54
2017-09-13T01:16:18.718Z,61.19
2017-09-13T01:17:18.845Z,61.57
2017-09-13T01:18:18.842Z,61.09
2017-09-13T01:19:19.104Z,61.19
2017-09-13T01:20:19.109Z,61.06
2017-09-13T01:21:19.165Z,61.25
2017-09-13T01:22:19.151Z,61.16
2017-09-13T01:23:19.172Z,61.44
2017-09-13T01:24:18.896Z,61.44
2017-09-13T01:25:19.209Z,61.35
2017-09-13T01:26:18.974Z,61.54
2017-09-13T01:27:19.253Z,61.35
2017-09-13T01:28:19.002Z,61.44
2017-09-13T01:29:19.293Z,61.35
2017-09-13T01:30:19.298Z,61.44
2017-09-13T01:31:19.317Z,61.63
2017-09-13T01:32:19.349Z,62.21
2017-09-13T01:33:19.369Z,61.54
2017-09-13T01:34:19.050Z,61.54
2017-09-13T01:35:19.067Z,61.54
2017-09-13T01:36:19.094Z,61.63
2017-09-13T01:37:19.109Z,61.72
2017-09-13T01:38:19.448Z,61.63
2017-09-13T01:39:19.148Z,61.63
2017-09-13T01:40:19.484Z,61.63
2017-09-13T01:41:19.502Z,61.54
2017-09-13T01:42:19.518Z,61.63
2017-09-13T01:43:19.542Z,61.54
2017-09-13T01:44:19.564Z,61.72
2017-09-13T01:45:19.251Z,62.01
2017-09-13T01:46:19.291Z,62.01
2017-09-13T01:47:19.617Z,62.01
2017-09-13T01:48:19.629Z,62.01
2017-09-13T01:49:19.652Z,61.92
2017-09-13T01:50:19.668Z,62.01
2017-09-13T01:51:19.690Z,61.82
2017-09-13T01:52:19.709Z,61.82
2017-09-13T01:53:19.743Z,61.82
2017-09-13T01:54:19.741Z,61.92
2017-09-13T01:55:19.765Z,61.72
2017-09-13T01:56:19.778Z,62.11
2017-09-13T01:57:19.795Z,61.63
2017-09-13T01:58:19.492Z,62.01
2017-09-13T01:59:19.833Z,62.3
2017-09-13T02:00:19.548Z,61.82
2017-09-13T02:01:19.873Z,62.11
2017-09-13T02:02:19.902Z,62.3
2017-09-13T02:03:19.942Z,62.11
2017-09-13T02:04:19.932Z,62.21
2017-09-13T02:05:19.944Z,62.11
2017-09-13T02:06:19.968Z,62.3
2017-09-13T02:07:19.989Z,62.4
2017-09-13T02:08:20.011Z,62.21
2017-09-13T02:09:20.020Z,62.21
2017-09-13T02:10:20.037Z,62.21
2017-09-13T02:11:20.059Z,62.4
2017-09-13T02:12:20.077Z,62.49
2017-09-13T02:13:20.094Z,62.49
2017-09-13T02:14:19.793Z,62.4
2017-09-13T02:15:20.134Z,62.49
2017-09-13T02:16:20.161Z,62.49
2017-09-13T02:17:20.169Z,62.87
2017-09-13T02:18:19.860Z,62.78
2017-09-13T02:19:19.881Z,62.78
2017-09-13T02:20:20.227Z,62.59
2017-09-13T02:21:20.238Z,62.59
2017-09-13T02:22:20.259Z,62.49
2017-09-13T02:23:19.970Z,62.49
2017-09-13T02:24:20.303Z,62.49
2017-09-13T02:25:20.010Z,62.87
2017-09-13T02:26:20.331Z,62.68
2017-09-13T02:27:20.351Z,62.78
2017-09-13T02:28:20.374Z,63.07
2017-09-13T02:29:20.063Z,62.68
2017-09-13T02:30:20.085Z,62.78
2017-09-13T02:31:20.102Z,62.4
2017-09-13T02:32:20.446Z,62.49
2017-09-13T02:33:20.148Z,62.68
2017-09-13T02:34:20.482Z,62.78
2017-09-13T02:35:20.497Z,63.16
2017-09-13T02:36:20.513Z,62.78
2017-09-13T02:37:20.535Z,62.68
2017-09-13T02:38:20.247Z,62.87
2017-09-13T02:39:20.581Z,62.87
2017-09-13T02:40:20.273Z,62.97
2017-09-13T02:41:20.606Z,62.97
2017-09-13T02:42:20.624Z,63.45
2017-09-13T02:43:20.647Z,62.78
2017-09-13T02:44:20.348Z,62.97
2017-09-13T02:45:20.359Z,63.16
2017-09-13T02:46:20.701Z,63.26
2017-09-13T02:47:20.726Z,63.16
2017-09-13T02:48:20.410Z,63.26
2017-09-13T02:49:20.752Z,63.45
2017-09-13T02:50:20.777Z,63.35
2017-09-13T02:51:20.469Z,63.45
2017-09-13T02:52:20.819Z,63.45
2017-09-13T02:53:20.505Z,63.64
2017-09-13T02:54:20.655Z,63.93
2017-09-13T02:55:20.629Z,63.93
2017-09-13T02:56:20.808Z,63.64
2017-09-13T02:57:20.580Z,63.93
2017-09-13T02:58:20.702Z,63.35
2017-09-13T02:59:20.615Z,63.73
2017-09-13T03:00:20.633Z,63.73
2017-09-13T03:01:20.708Z,63.45
2017-09-13T03:02:20.668Z,64.02
2017-09-13T03:03:20.686Z,63.64
2017-09-13T03:04:21.034Z,63.83
2017-09-13T03:05:20.719Z,63.73
2017-09-13T03:06:20.744Z,64.02
2017-09-13T03:07:20.764Z,63.93
2017-09-13T03:08:20.781Z,63.83
2017-09-13T03:09:21.251Z,63.93
2017-09-13T03:10:21.135Z,63.35
2017-09-13T03:11:20.838Z,64.12
2017-09-13T03:12:20.853Z,63.45
2017-09-13T03:13:21.189Z,63.73
2017-09-13T03:14:20.888Z,63.73
2017-09-13T03:15:21.229Z,63.54
2017-09-13T03:16:20.922Z,64.02
2017-09-13T03:17:20.940Z,63.83
2017-09-13T03:18:20.962Z,63.93
2017-09-13T03:19:20.981Z,63.54
2017-09-13T03:20:21.003Z,64.02
2017-09-13T03:21:21.127Z,64.12
2017-09-13T03:22:21.360Z,64.5
2017-09-13T03:23:21.049Z,64.02
2017-09-13T03:24:21.393Z,64.5
2017-09-13T03:25:21.089Z,64.12
2017-09-13T03:26:21.425Z,64.31
2017-09-13T03:27:21.452Z,64.02
2017-09-13T03:28:21.158Z,64.02
2017-09-13T03:29:21.486Z,64.22
2017-09-13T03:30:21.507Z,64.22
2017-09-13T03:31:21.520Z,64.31
2017-09-13T03:32:21.216Z,64.4
2017-09-13T03:33:21.563Z,64.4
2017-09-13T03:34:21.572Z,64.02
2017-09-13T03:35:21.726Z,64.69
2017-09-13T03:36:21.292Z,64.5
2017-09-13T03:37:21.305Z,64.22
2017-09-13T03:38:21.481Z,64.22
2017-09-13T03:39:21.353Z,64.5
2017-09-13T03:40:21.780Z,64.4
2017-09-13T03:41:21.423Z,64.69
2017-09-13T03:42:21.398Z,64.69
2017-09-13T03:43:21.833Z,64.69
2017-09-13T03:44:21.754Z,64.59
2017-09-13T03:45:21.903Z,64.5
2017-09-13T03:46:21.572Z,64.5
2017-09-13T03:47:21.739Z,64.69
2017-09-13T03:48:22.061Z,64.69
2017-09-13T03:49:21.955Z,64.78
2017-09-13T03:50:22.074Z,64.22
2017-09-13T03:51:22.098Z,64.5
2017-09-13T03:52:22.039Z,64.31
2017-09-13T03:53:22.047Z,64.31
2017-09-13T03:54:21.913Z,64.5
2017-09-13T03:55:22.045Z,64.22
2017-09-13T03:56:22.114Z,64.98
2017-09-13T03:57:21.997Z,64.59
2017-09-13T03:58:21.689Z,64.69
2017-09-13T03:59:21.803Z,64.69
2017-09-13T04:00:22.049Z,64.98
2017-09-13T04:01:22.073Z,64.59
2017-09-13T04:02:21.848Z,64.59
2017-09-13T04:03:22.102Z,65.17
2017-09-13T04:04:22.125Z,65.36
2017-09-13T04:05:22.140Z,64.69
2017-09-13T04:06:22.160Z,65.07
2017-09-13T04:07:21.855Z,65.07
2017-09-13T04:08:21.870Z,64.5
2017-09-13T04:09:21.888Z,65.45
2017-09-13T04:10:22.230Z,65.55
2017-09-13T04:11:21.924Z,65.64
2017-09-13T04:12:21.945Z,65.55
2017-09-13T04:13:21.968Z,65.64
2017-09-13T04:14:22.307Z,65.55
2017-09-13T04:15:22.322Z,65.55
2017-09-13T04:16:22.346Z,64.78
2017-09-13T04:17:22.356Z,65.55
2017-09-13T04:18:22.372Z,65.45
2017-09-13T04:19:22.432Z,64.78
2017-09-13T04:20:22.414Z,64.98
2017-09-13T04:21:22.514Z,65.26
2017-09-13T04:22:22.134Z,65.36
2017-09-13T04:23:22.474Z,65.26
2017-09-13T04:24:22.496Z,65.36
2017-09-13T04:25:22.542Z,65.36
2017-09-13T04:26:22.599Z,65.07
2017-09-13T04:27:22.221Z,65.36
2017-09-13T04:28:22.555Z,65.45
2017-09-13T04:29:22.251Z,65.45
2017-09-13T04:30:22.273Z,65.07
2017-09-13T04:31:22.611Z,65.07
2017-09-13T04:32:22.310Z,65.36
2017-09-13T04:33:22.327Z,65.45
2017-09-13T04:34:22.662Z,65.36
2017-09-13T04:35:22.360Z,65.36
2017-09-13T04:36:22.376Z,65.26
2017-09-13T04:37:22.723Z,65.26
2017-09-13T04:38:22.741Z,65.36
2017-09-13T04:39:22.757Z,65.07
2017-09-13T04:40:22.453Z,65.17
2017-09-13T04:41:22.470Z,65.17
2017-09-13T04:42:22.490Z,65.36
2017-09-13T04:43:22.832Z,65.36
2017-09-13T04:44:22.858Z,65.26
2017-09-13T04:45:22.553Z,65.17
2017-09-13T04:46:22.559Z,65.17
2017-09-13T04:47:22.578Z,65.26
2017-09-13T04:48:22.917Z,65.07
2017-09-13T04:49:22.936Z,65.26
2017-09-13T04:50:22.956Z,65.55
2017-09-13T04:51:22.975Z,65.55
2017-09-13T04:52:22.670Z,65.36
2017-09-13T04:53:22.689Z,65.26
2017-09-13T04:54:22.706Z,64.98
2017-09-13T04:55:22.724Z,64.98
2017-09-13T04:56:22.742Z,65.17
2017-09-13T04:57:23.082Z,65.17
2017-09-13T04:58:23.102Z,65.45
2017-09-13T04:59:22.796Z,65.36
2017-09-13T05:00:23.146Z,65.36
2017-09-13T05:01:23.156Z,65.26
2017-09-13T05:02:22.856Z,64.78
2017-09-13T05:03:23.193Z,65.36
2017-09-13T05:04:23.211Z,65.17
2017-09-13T05:05:23.229Z,65.07
2017-09-13T05:06:23.248Z,65.55
2017-09-13T05:07:22.943Z,65.17
2017-09-13T05:08:22.962Z,65.55
2017-09-13T05:09:22.981Z,65.07
2017-09-13T05:10:23.018Z,65.45
2017-09-13T05:11:23.341Z,65.36
2017-09-13T05:12:23.428Z,65.45
2017-09-13T05:13:23.053Z,65.36
2017-09-13T05:14:23.395Z,65.45
2017-09-13T05:15:23.467Z,65.55
2017-09-13T05:16:23.431Z,65.36
2017-09-13T05:17:23.125Z,65.26
2017-09-13T05:18:23.471Z,65.45
2017-09-13T05:19:23.487Z,65.36
2017-09-13T05:20:23.184Z,64.88
2017-09-13T05:21:23.524Z,65.64
2017-09-13T05:22:23.541Z,65.74
2017-09-13T05:23:23.564Z,64.78
2017-09-13T05:24:23.576Z,64.88
2017-09-13T05:25:25.074Z,65.55
2017-09-13T05:26:23.612Z,65.64
2017-09-13T05:27:23.633Z,64.88
2017-09-13T05:28:23.661Z,65.45
2017-09-13T05:29:23.673Z,65.26
2017-09-13T05:30:23.365Z,65.17
2017-09-13T05:31:23.699Z,64.78
2017-09-13T05:32:23.726Z,65.74
2017-09-13T05:33:23.744Z,64.69
2017-09-13T05:34:23.437Z,65.17
2017-09-13T05:35:23.454Z,64.5
2017-09-13T05:36:23.810Z,65.45
2017-09-13T05:37:23.815Z,65.26
2017-09-13T05:38:23.543Z,64.91
2017-09-13T05:39:23.530Z,65.3
2017-09-13T05:40:23.869Z,65.39
2017-09-13T05:41:23.894Z,64.78
2017-09-13T05:42:23.596Z,64.62
2017-09-13T05:43:23.926Z,64.82
2017-09-13T05:44:23.619Z,64.53
2017-09-13T05:45:23.641Z,65.2
2017-09-13T05:46:23.976Z,65.2
2017-09-13T05:47:23.998Z,65.2
2017-09-13T05:48:23.692Z,64.62
2017-09-13T05:49:23.712Z,64.72
2017-09-13T05:50:23.728Z,64.91
2017-09-13T05:51:23.745Z,64.62
2017-09-13T05:52:24.095Z,64.91
2017-09-13T05:53:24.110Z,64.72
2017-09-13T05:54:24.128Z,64.91
2017-09-13T05:55:24.147Z,64.72
2017-09-13T05:56:24.183Z,64.72
2017-09-13T05:57:23.855Z,64.91
2017-09-13T05:58:24.214Z,64.91
2017-09-13T05:59:24.225Z,64.82
2017-09-13T06:00:24.232Z,64.82
2017-09-13T06:01:23.935Z,64.43
2017-09-13T06:02:24.272Z,64.62
2017-09-13T06:03:24.294Z,64.43
2017-09-13T06:04:24.311Z,64.72
2017-09-13T06:05:24.328Z,64.62
2017-09-13T06:06:24.347Z,64.25
2017-09-13T06:07:24.388Z,64.43
2017-09-13T06:08:24.386Z,64.15
2017-09-13T06:09:24.400Z,64.25
2017-09-13T06:10:24.469Z,64.43
2017-09-13T06:11:24.114Z,64.34
2017-09-13T06:12:24.543Z,64.43
2017-09-13T06:13:24.583Z,64.15
2017-09-13T06:14:24.580Z,64.34
2017-09-13T06:15:24.578Z,64.34
2017-09-13T06:16:24.717Z,64.05
2017-09-13T06:17:24.229Z,64.62
2017-09-13T06:18:24.337Z,64.72
2017-09-13T06:19:24.313Z,64.72
2017-09-13T06:20:24.623Z,64.34
2017-09-13T06:21:24.301Z,64.25
2017-09-13T06:22:24.644Z,64.53
2017-09-13T06:23:24.662Z,64.53
2017-09-13T06:24:24.688Z,64.91
2017-09-13T06:25:25.137Z,64.91
2017-09-13T06:26:24.728Z,65.11
2017-09-13T06:27:24.416Z,64.85
2017-09-13T06:28:24.759Z,65.68
2017-09-13T06:29:24.773Z,65.48
2017-09-13T06:30:24.472Z,65.39
2017-09-13T06:31:24.806Z,65.48
2017-09-13T06:32:24.831Z,64.91
2017-09-13T06:33:24.856Z,65.77
2017-09-13T06:34:24.548Z,65.58
2017-09-13T06:35:24.560Z,65.87
2017-09-13T06:36:24.901Z,65.9
2017-09-13T06:37:24.920Z,65.2
2017-09-13T06:38:24.938Z,65.87
2017-09-13T06:39:24.965Z,65.9
2017-09-13T06:40:24.653Z,65.68
2017-09-13T06:41:24.995Z,65.81
2017-09-13T06:42:24.697Z,65.77
2017-09-13T06:43:25.031Z,65.87
2017-09-13T06:44:24.724Z,66.16
2017-09-13T06:45:25.068Z,65.87
2017-09-13T06:46:25.096Z,66.06
2017-09-13T06:47:25.106Z,66.09
2017-09-13T06:48:25.123Z,65.9
2017-09-13T06:49:25.148Z,65.71
2017-09-13T06:50:25.161Z,66.28
2017-09-13T06:51:25.298Z,65.9
2017-09-13T06:52:24.877Z,66.38
2017-09-13T06:53:24.895Z,66.38
2017-09-13T06:54:24.916Z,66
2017-09-13T06:55:24.931Z,66.38
2017-09-13T06:56:25.613Z,66.09
2017-09-13T06:57:25.358Z,66.28
2017-09-13T06:58:25.416Z,66
2017-09-13T06:59:25.416Z,65.81
2017-09-13T07:00:25.416Z,65.9
2017-09-13T07:01:25.045Z,66.09
2017-09-13T07:02:25.417Z,65.9
2017-09-13T07:03:25.410Z,66.28
2017-09-13T07:04:25.425Z,66.19
2017-09-13T07:05:25.530Z,65.9
2017-09-13T07:06:25.229Z,65.9
2017-09-13T07:07:25.555Z,65.9
2017-09-13T07:08:25.555Z,66.09
2017-09-13T07:09:25.554Z,65.61
2017-09-13T07:10:25.563Z,65.9
2017-09-13T07:11:25.572Z,66
2017-09-13T07:12:25.581Z,65.9
2017-09-13T07:13:25.599Z,66.09
2017-09-13T07:14:25.615Z,65.71
2017-09-13T07:15:25.630Z,66.19
2017-09-13T07:16:25.650Z,66
2017-09-13T07:17:25.668Z,66.09
2017-09-13T07:18:25.689Z,65.9
2017-09-13T07:19:25.709Z,66.28
2017-09-13T07:20:25.421Z,66
2017-09-13T07:21:25.423Z,66.38
2017-09-13T07:22:25.540Z,65.9
2017-09-13T07:23:25.539Z,66.57
2017-09-13T07:24:25.802Z,66.67
2017-09-13T07:25:25.818Z,66.38
2017-09-13T07:26:25.841Z,66.09
2017-09-13T07:27:25.859Z,66.47
2017-09-13T07:28:25.875Z,66.19
2017-09-13T07:29:25.893Z,66.57
2017-09-13T07:30:25.915Z,66.28
2017-09-13T07:31:25.671Z,66.76
2017-09-13T07:32:25.951Z,66.28
2017-09-13T07:33:25.975Z,66.09
2017-09-13T07:34:25.670Z,66.57
2017-09-13T07:35:26.011Z,66.76
2017-09-13T07:36:26.032Z,66.76
2017-09-13T07:37:25.726Z,66.67
2017-09-13T07:38:26.065Z,67.05
2017-09-13T07:39:25.763Z,66.57
2017-09-13T07:40:25.786Z,66.86
2017-09-13T07:41:25.804Z,66.47
2017-09-13T07:42:25.819Z,66.47
2017-09-13T07:43:25.837Z,66.57
2017-09-13T07:44:26.192Z,66.67
2017-09-13T07:45:25.874Z,66.57
2017-09-13T07:46:25.895Z,66.57
2017-09-13T07:47:25.913Z,66.67
2017-09-13T07:48:25.936Z,66.76
2017-09-13T07:49:25.952Z,66.47
2017-09-13T07:50:25.969Z,66.47
2017-09-13T07:51:26.309Z,66.96
2017-09-13T07:52:26.329Z,66.86
2017-09-13T07:53:26.354Z,66.47
2017-09-13T07:54:26.372Z,67.05
2017-09-13T07:55:26.398Z,66.67
2017-09-13T07:56:26.411Z,66.76
2017-09-13T07:57:26.103Z,66.67
2017-09-13T07:58:26.123Z,66.28
2017-09-13T07:59:26.151Z,66.76
2017-09-13T08:00:26.176Z,67.14
2017-09-13T08:01:26.515Z,66.86
2017-09-13T08:02:26.214Z,66.67
2017-09-13T08:03:26.537Z,67.05
2017-09-13T08:04:26.560Z,66.86
2017-09-13T08:05:26.264Z,66.76
2017-09-13T08:06:26.277Z,66.57
2017-09-13T08:07:26.294Z,66.96
2017-09-13T08:08:26.634Z,66.86
2017-09-13T08:09:26.328Z,66.76
2017-09-13T08:10:26.674Z,66.76
2017-09-13T08:11:26.693Z,66.76
2017-09-13T08:12:26.386Z,66.76
2017-09-13T08:13:26.734Z,67.05
2017-09-13T08:14:26.750Z,67.05
2017-09-13T08:15:26.769Z,66.67
2017-09-13T08:16:26.464Z,66.86
2017-09-13T08:17:26.801Z,66.67
2017-09-13T08:18:26.822Z,66.86
2017-09-13T08:19:26.844Z,66.47
2017-09-13T08:20:26.861Z,66.38
2017-09-13T08:21:26.556Z,66.76
2017-09-13T08:22:26.575Z,66.8
2017-09-13T08:23:26.915Z,66.51
2017-09-13T08:24:26.617Z,66.7
2017-09-13T08:25:26.636Z,66.7
2017-09-13T08:26:26.974Z,67.08
2017-09-13T08:27:26.674Z,66.89
2017-09-13T08:28:27.018Z,66.7
2017-09-13T08:29:26.711Z,66.51
2017-09-13T08:30:26.731Z,66.41
2017-09-13T08:31:27.074Z,66.22
2017-09-13T08:32:27.089Z,66.7
2017-09-13T08:33:26.788Z,66.41
2017-09-13T08:34:27.137Z,66.32
2017-09-13T08:35:27.278Z,66.13
2017-09-13T08:36:27.276Z,65.94
2017-09-13T08:37:27.275Z,66.22
2017-09-13T08:38:27.309Z,66.51
2017-09-13T08:39:26.901Z,66.13
2017-09-13T08:40:26.921Z,65.94
2017-09-13T08:41:27.308Z,66.13
2017-09-13T08:42:27.307Z,66.03
2017-09-13T08:43:27.305Z,65.84
2017-09-13T08:44:26.997Z,66.32
2017-09-13T08:45:27.018Z,65.65
2017-09-13T08:46:27.034Z,65.26
2017-09-13T08:47:27.052Z,65.65
2017-09-13T08:48:27.076Z,65.26
2017-09-13T08:49:27.218Z,65.36
2017-09-13T08:50:27.528Z,64.98
2017-09-13T08:51:27.544Z,64.98
2017-09-13T08:52:27.565Z,65.39
2017-09-13T08:53:27.587Z,65.39
2017-09-13T08:54:27.281Z,65.11
2017-09-13T08:55:27.762Z,64.63
2017-09-13T08:56:27.554Z,64.82
2017-09-13T08:57:27.588Z,64.63
2017-09-13T08:58:27.614Z,64.34
2017-09-13T08:59:27.634Z,64.53
2017-09-13T09:00:27.625Z,64.34
2017-09-13T09:01:27.651Z,64.34
2017-09-13T09:02:27.669Z,64.34
2017-09-13T09:03:27.688Z,64.53
2017-09-13T09:04:27.458Z,64.25
2017-09-13T09:05:27.720Z,63.76
2017-09-13T09:06:27.455Z,63.67
2017-09-13T09:07:27.455Z,63.86
2017-09-13T09:08:27.782Z,63.8
2017-09-13T09:09:27.479Z,63.96
2017-09-13T09:10:27.824Z,63.32
2017-09-13T09:11:27.850Z,63.13
2017-09-13T09:12:27.861Z,63.03
2017-09-13T09:13:27.880Z,63.03
2017-09-13T09:14:27.572Z,62.36
2017-09-13T09:15:27.924Z,62.84
2017-09-13T09:16:27.614Z,62.74
2017-09-13T09:17:27.634Z,62.26
2017-09-13T09:18:27.662Z,62.07
2017-09-13T09:19:27.684Z,62.17
2017-09-13T09:20:28.091Z,61.91
2017-09-13T09:21:28.088Z,61.24
2017-09-13T09:22:27.732Z,61.63
2017-09-13T09:23:28.087Z,61.24
2017-09-13T09:24:28.216Z,61.43
2017-09-13T09:25:28.214Z,60.67
2017-09-13T09:26:27.813Z,60.76
2017-09-13T09:27:28.253Z,60.38
2017-09-13T09:28:28.248Z,60.47
2017-09-13T09:29:28.249Z,60.47
2017-09-13T09:30:27.896Z,60.31
2017-09-13T09:31:28.245Z,60.22
2017-09-13T09:32:27.931Z,59.93
2017-09-13T09:33:28.065Z,59.64
2017-09-13T09:34:28.394Z,59.26
2017-09-13T09:35:28.427Z,59.45
2017-09-13T09:36:28.389Z,59.45
2017-09-13T09:37:28.088Z,59.16
2017-09-13T09:38:28.097Z,59.58
2017-09-13T09:39:28.070Z,58.71
2017-09-13T09:40:28.412Z,59.09
2017-09-13T09:41:28.226Z,59.09
2017-09-13T09:42:28.504Z,59.29
2017-09-13T09:43:28.470Z,57.95
2017-09-13T09:44:28.260Z,58.52
2017-09-13T09:45:28.511Z,58.33
2017-09-13T09:46:28.640Z,58.33
2017-09-13T09:47:28.667Z,58.17
2017-09-13T09:48:28.572Z,58.26
2017-09-13T09:49:28.367Z,57.78
2017-09-13T09:50:28.620Z,57.78
2017-09-13T09:51:28.401Z,57.04
2017-09-13T09:52:28.401Z,57.14
2017-09-13T09:53:28.402Z,56.85
2017-09-13T09:54:28.691Z,56.18
2017-09-13T09:55:28.408Z,56.08
2017-09-13T09:56:28.734Z,55.89
2017-09-13T09:57:28.434Z,56.18
2017-09-13T09:58:28.777Z,55.99
2017-09-13T09:59:28.802Z,55.69
2017-09-13T10:00:28.821Z,55.69
2017-09-13T10:01:28.841Z,55.32
2017-09-13T10:02:28.538Z,55.69
2017-09-13T10:03:28.876Z,55.32
2017-09-13T10:04:28.898Z,54.83
2017-09-13T10:05:28.597Z,54.64
2017-09-13T10:06:28.618Z,54.67
2017-09-13T10:07:28.959Z,54.64
2017-09-13T10:08:28.660Z,55.12
2017-09-13T10:09:28.680Z,54.83
2017-09-13T10:10:29.023Z,54.93
2017-09-13T10:11:29.044Z,54.16
2017-09-13T10:12:28.742Z,54.45
2017-09-13T10:13:28.765Z,54.25
2017-09-13T10:14:29.104Z,54.64
2017-09-13T10:15:29.130Z,54.64
2017-09-13T10:16:29.148Z,55.22
2017-09-13T10:17:28.845Z,55.02
2017-09-13T10:18:28.870Z,54.74
2017-09-13T10:19:29.219Z,54.16
2017-09-13T10:20:29.236Z,54.16
2017-09-13T10:21:29.256Z,54.55
2017-09-13T10:22:28.950Z,54.16
2017-09-13T10:23:29.295Z,54.45
2017-09-13T10:24:29.315Z,54.64
2017-09-13T10:25:29.012Z,54.25
2017-09-13T10:26:29.032Z,54.55
2017-09-13T10:27:29.051Z,53.78
2017-09-13T10:28:29.399Z,54.83
2017-09-13T10:29:29.426Z,54.74
2017-09-13T10:30:29.443Z,54.74
2017-09-13T10:31:29.137Z,54.64
2017-09-13T10:32:29.483Z,54.55
2017-09-13T10:33:29.182Z,54.55
2017-09-13T10:34:29.203Z,54.64
2017-09-13T10:35:29.544Z,54.74
2017-09-13T10:36:29.244Z,54.35
2017-09-13T10:37:29.261Z,54.35
2017-09-13T10:38:29.282Z,54.8
2017-09-13T10:39:29.627Z,54.06
2017-09-13T10:40:29.664Z,54.23
2017-09-13T10:41:29.666Z,54.45
2017-09-13T10:42:29.575Z,54.64
2017-09-13T10:43:29.386Z,54.74
2017-09-13T10:44:29.739Z,54.45
2017-09-13T10:45:29.754Z,54.45
2017-09-13T10:46:29.793Z,54.35
2017-09-13T10:47:29.472Z,54.55
2017-09-13T10:48:29.819Z,54.64
2017-09-13T10:49:29.835Z,54.64
2017-09-13T10:50:29.865Z,54.74
2017-09-13T10:51:29.577Z,54.06
2017-09-13T10:52:29.912Z,54.55
2017-09-13T10:53:29.597Z,55.02
2017-09-13T10:54:29.938Z,54.35
2017-09-13T10:55:29.969Z,54.35
2017-09-13T10:56:29.667Z,54.55
2017-09-13T10:57:29.681Z,54.45
2017-09-13T10:58:29.704Z,53.87
2017-09-13T10:59:29.724Z,54.83
2017-09-13T11:00:29.749Z,54.83
2017-09-13T11:01:30.139Z,54.16
2017-09-13T11:02:29.812Z,54.06
2017-09-13T11:03:30.265Z,54.25
2017-09-13T11:04:30.281Z,53.68
2017-09-13T11:05:30.274Z,53.3
2017-09-13T11:06:30.299Z,54.06
2017-09-13T11:07:29.893Z,53.78
2017-09-13T11:08:29.918Z,53.78
2017-09-13T11:09:29.936Z,53.87
2017-09-13T11:10:30.071Z,53.68
2017-09-13T11:11:30.395Z,53.87
2017-09-13T11:12:30.412Z,52.91
2017-09-13T11:13:30.595Z,53.58
2017-09-13T11:14:30.547Z,53.01
2017-09-13T11:15:30.591Z,53.01
2017-09-13T11:16:30.603Z,53.49
2017-09-13T11:17:30.600Z,53.11
2017-09-13T11:18:30.286Z,53.03
2017-09-13T11:19:30.255Z,53.01
2017-09-13T11:20:30.602Z,53.13
2017-09-13T11:21:30.605Z,52.94
2017-09-13T11:22:30.427Z,52.84
2017-09-13T11:23:30.651Z,52.84
2017-09-13T11:24:30.464Z,52.75
2017-09-13T11:25:30.376Z,52.65
2017-09-13T11:26:30.758Z,52.75
2017-09-13T11:27:30.758Z,52.94
2017-09-13T11:28:30.707Z,52.36
2017-09-13T11:29:30.706Z,52.36
2017-09-13T11:30:30.714Z,52.48
2017-09-13T11:31:30.722Z,52.48
2017-09-13T11:32:30.767Z,52.65
2017-09-13T11:33:30.442Z,52.48
2017-09-13T11:34:30.494Z,52.39
2017-09-13T11:35:30.880Z,52.48
2017-09-13T11:36:30.830Z,52.58
2017-09-13T11:37:30.852Z,52.58
2017-09-13T11:38:30.555Z,52.58
2017-09-13T11:39:30.896Z,52.29
2017-09-13T11:40:30.930Z,52.2
2017-09-13T11:41:30.939Z,52
2017-09-13T11:42:30.963Z,51.81
2017-09-13T11:43:30.661Z,51.14
2017-09-13T11:44:30.681Z,51.17
2017-09-13T11:45:30.701Z,51.17
2017-09-13T11:46:30.724Z,51.26
2017-09-13T11:47:30.744Z,51.17
2017-09-13T11:48:30.770Z,50.97
2017-09-13T11:49:31.116Z,50.68
2017-09-13T11:50:30.809Z,50.61
2017-09-13T11:51:31.163Z,50.61
2017-09-13T11:52:30.853Z,50.61
2017-09-13T11:53:31.201Z,50.51
2017-09-13T11:54:31.224Z,50.99
2017-09-13T11:55:30.918Z,50.81
2017-09-13T11:56:31.262Z,50.51
2017-09-13T11:57:30.960Z,50.42
2017-09-13T11:58:30.985Z,50.32
2017-09-13T11:59:31.334Z,50.13
2017-09-13T12:00:31.030Z,50.61
2017-09-13T12:01:31.372Z,50.23
2017-09-13T12:02:31.070Z,49.46
2017-09-13T12:03:31.096Z,49.65
2017-09-13T12:04:31.450Z,49.74
2017-09-13T12:05:31.462Z,50.04
2017-09-13T12:06:31.156Z,49.55
2017-09-13T12:07:31.504Z,50.13
2017-09-13T12:08:31.523Z,49.36
2017-09-13T12:09:31.549Z,49.46
2017-09-13T12:10:31.565Z,49.46
2017-09-13T12:11:31.591Z,49.65
2017-09-13T12:12:31.292Z,49.55
2017-09-13T12:13:31.312Z,49.36
2017-09-13T12:14:31.330Z,49.36
2017-09-13T12:15:31.360Z,49.46
2017-09-13T12:16:31.702Z,49.27
2017-09-13T12:17:31.721Z,49.46
2017-09-13T12:18:31.743Z,49.55
2017-09-13T12:19:31.768Z,49.55
2017-09-13T12:20:31.465Z,49.07
2017-09-13T12:21:31.811Z,49.55
2017-09-13T12:22:31.838Z,49.55
2017-09-13T12:23:31.855Z,49.46
2017-09-13T12:24:31.550Z,49.27
2017-09-13T12:25:31.579Z,49.46
2017-09-13T12:26:31.923Z,50.04
2017-09-13T12:27:31.942Z,49.55
2017-09-13T12:28:31.643Z,49.55
2017-09-13T12:29:31.666Z,49.65
2017-09-13T12:30:31.686Z,49.65
2017-09-13T12:31:31.705Z,49.68
2017-09-13T12:32:31.730Z,49.96
2017-09-13T12:33:31.749Z,50.15
2017-09-13T12:34:31.774Z,50.25
2017-09-13T12:35:31.794Z,49.87
2017-09-13T12:36:31.818Z,49.68
2017-09-13T12:37:31.841Z,49.77
2017-09-13T12:38:31.860Z,49.48
2017-09-13T12:39:31.884Z,49.29
2017-09-13T12:40:31.906Z,49.32
2017-09-13T12:41:31.936Z,49.7
2017-09-13T12:42:32.272Z,48.83
2017-09-13T12:43:32.296Z,49.02
2017-09-13T12:44:32.319Z,48.93
2017-09-13T12:45:32.344Z,49.12
2017-09-13T12:46:32.041Z,48.64
2017-09-13T12:47:32.064Z,48.64
2017-09-13T12:48:32.414Z,48.54
2017-09-13T12:49:32.335Z,48.74
2017-09-13T12:50:32.130Z,48.64
2017-09-13T12:51:32.155Z,48.35
2017-09-13T12:52:32.505Z,48.54
2017-09-13T12:53:32.529Z,48.57
2017-09-13T12:54:32.221Z,48.44
2017-09-13T12:55:32.571Z,48.38